Time;durP1;ratioP1;P1;durP2;ratioP2;P2;SDS_P1;SDS_P2;PMS_P1;PMS_P2;Temp;Humidity;BMP_temperature;BMP_pressure;BME280_temperature;BME280_humidity;BME280_pressure;Samples;Min_cycle;Max_cycle;Signal;HPM_P1;HPM_P2
2021/04/22 00:02:25;;;;;;;;;;;256.90;2252.80;;;;;;4996041;28;20022;-88
2021/04/22 00:04:51;;;;;;;54.53;35.05;;;281.60;2278.40;;;;;;4995241;28;19905;-88
2021/04/22 00:07:17;;;;;;;;;;;256.90;2252.80;;;;;;5012801;28;20062;-88
2021/04/22 00:09:43;;;;;;;56.70;37.13;;;281.80;2278.40;;;;;;4994928;28;19910;-80
2021/04/22 00:12:10;;;;;;;56.25;37.83;;;256.80;2252.80;;;;;;4994553;28;20038;-85
2021/04/22 00:14:35;;;;;;;52.80;36.58;;;256.90;2252.80;;;;;;4995606;28;20112;-90
2021/04/22 00:17:06;;;;;;;52.42;36.10;;;281.70;2278.40;;;;;;4994851;28;20066;-85
2021/04/22 00:19:31;;;;;;;54.53;36.20;;;281.90;2252.80;;;;;;4994759;28;20057;-84
2021/04/22 00:21:57;;;;;;;56.90;36.85;;;282.00;2227.20;;;;;;5012458;28;20124;-79
2021/04/22 00:24:23;;;;;;;55.60;36.67;;;282.00;2227.20;;;;;;4994970;28;20499;-88
2021/04/22 00:26:48;;;;;;;;;;;282.10;2227.20;;;;;;4995179;28;20037;-79
2021/04/22 00:29:14;;;;;;;49.78;33.70;;;282.10;2201.60;;;;;;5012343;28;19905;-79
2021/04/22 00:31:40;;;;;;;49.92;32.65;;;282.10;2201.60;;;;;;5012805;28;20026;-83
2021/04/22 00:34:05;;;;;;;49.47;33.20;;;282.20;2201.60;;;;;;4998146;28;20026;-78
2021/04/22 00:36:31;;;;;;;;;;;282.20;2176.00;;;;;;4998993;28;20483;-85
2021/04/22 00:38:57;;;;;;;53.08;35.53;;;282.20;2176.00;;;;;;4998358;28;19917;-87
2021/04/22 00:41:22;;;;;;;;;;;282.10;2201.60;;;;;;4999113;28;20422;-84
2021/04/22 00:43:51;;;;;;;54.17;34.53;;;282.10;2201.60;;;;;;4998273;28;19909;-80
2021/04/22 00:46:17;;;;;;;51.28;33.53;;;282.00;2227.20;;;;;;4998288;28;20096;-78
2021/04/22 00:48:42;;;;;;;52.05;34.65;;;281.80;2252.80;;;;;;4998222;28;20423;-84
2021/04/22 00:51:08;;;;;;;;;;;281.80;2252.80;;;;;;4998335;28;20038;-88
2021/04/22 00:53:34;;;;;;;52.03;32.55;;;281.70;2252.80;;;;;;4997577;28;19906;-89
2021/04/22 00:56:00;;;;;;;48.55;33.97;;;281.70;2252.80;;;;;;4998197;28;20025;-91
2021/04/22 00:58:26;;;;;;;54.70;35.17;;;281.90;2252.80;;;;;;5015561;28;20108;-90
2021/04/22 01:00:57;;;;;;;52.90;34.45;;;282.00;2201.60;;;;;;4997920;28;20085;-87
2021/04/22 01:03:24;;;;;;;52.60;32.67;;;282.10;2201.60;;;;;;5015893;28;20033;-91
2021/04/22 01:05:54;;;;;;;52.33;34.15;;;282.20;2201.60;;;;;;4997750;28;20044;-91
2021/04/22 01:08:20;;;;;;;51.42;34.95;;;282.20;2176.00;;;;;;4997775;28;20037;-90
2021/04/22 01:10:46;;;;;;;55.35;36.38;;;282.30;2176.00;;;;;;5016115;28;20537;-90
2021/04/22 01:13:12;;;;;;;52.88;34.63;;;282.00;2176.00;;;;;;4997976;28;20080;-90
2021/04/22 01:15:38;;;;;;;53.70;34.58;;;282.40;2150.40;;;;;;4997598;28;20029;-85
2021/04/22 01:18:09;;;;;;;51.83;32.95;;;282.40;2150.40;;;;;;5015685;28;20030;-89
2021/04/22 01:20:44;;;;;;;49.50;33.13;;;282.40;2124.80;;;;;;4997428;28;20458;-79
2021/04/22 01:23:12;;;;;;;35.60;24.35;;;282.40;2124.80;;;;;;5012845;28;20084;-88
2021/04/22 01:25:40;;;;;;;51.90;32.50;;;282.50;2099.20;;;;;;4997704;28;20061;-79
2021/04/22 01:28:10;;;;;;;48.13;32.38;;;282.50;2099.20;;;;;;4997594;28;20037;-90
2021/04/22 01:30:41;;;;;;;46.28;31.50;;;282.50;2099.20;;;;;;4997350;28;20029;-78
2021/04/22 01:33:08;;;;;;;49.85;31.88;;;307.30;2099.20;;;;;;5004959;28;20168;-89
2021/04/22 01:35:38;;;;;;;48.17;31.58;;;307.30;2099.20;;;;;;5014051;28;20033;-89
2021/04/22 01:38:06;;;;;;;48.65;31.38;;;307.40;2099.20;;;;;;5014103;28;20471;-80
2021/04/22 01:40:34;;;;;;;47.90;32.72;;;307.30;2099.20;;;;;;5013497;28;20038;-86
2021/04/22 01:43:00;;;;;;;44.88;31.70;;;307.30;2099.20;;;;;;5012476;28;20025;-85
2021/04/22 01:45:26;;;;;;;48.20;32.88;;;307.30;2099.20;;;;;;5013881;28;20026;-89
2021/04/22 01:47:55;;;;;;;49.15;32.63;;;307.30;2124.80;;;;;;5012450;28;20026;-88
2021/04/22 01:50:27;;;;;;;46.35;32.88;;;282.50;2124.80;;;;;;5012298;28;20041;-88
2021/04/22 01:52:54;;;;;;;47.50;33.25;;;282.40;2124.80;;;;;;5006242;28;20472;-81
2021/04/22 01:55:36;;;;;;;49.65;33.53;;;282.50;2099.20;;;;;;4988820;28;20119;-89
2021/04/22 01:58:03;;;;;;;48.45;33.13;;;282.30;2150.40;;;;;;5014421;28;20022;-79
2021/04/22 02:00:35;;;;;;;50.67;33.17;;;282.30;2124.80;;;;;;4996612;28;20045;-84
2021/04/22 02:03:02;;;;;;;55.13;35.20;;;282.50;2124.80;;;;;;4996743;28;20048;-89
2021/04/22 02:05:27;;;;;;;47.88;32.90;;;282.40;2099.20;;;;;;4996759;28;20048;-87
2021/04/22 02:07:53;;;;;;;47.22;31.40;;;282.40;2124.80;;;;;;4996963;28;20046;-88
2021/04/22 02:10:20;;;;;;;48.75;32.17;;;282.50;2099.20;;;;;;5014094;28;20048;-82
2021/04/22 02:12:46;;;;;;;45.55;30.92;;;282.50;2073.60;;;;;;4996328;28;20026;-89
2021/04/22 02:15:17;;;;;;;46.35;31.15;;;282.50;2048.00;;;;;;5013329;28;20033;-79
2021/04/22 02:17:44;;;;;;;44.92;30.02;;;282.50;2048.00;;;;;;4996446;28;20018;-89
2021/04/22 02:20:12;;;;;;;48.17;31.48;;;282.50;2048.00;;;;;;5013799;28;20033;-79
2021/04/22 02:22:38;;;;;;;47.78;30.35;;;282.50;2048.00;;;;;;5013399;28;20567;-81
2021/04/22 02:25:06;;;;;;;44.88;31.45;;;307.20;2048.00;;;;;;4995782;28;20376;-88
2021/04/22 02:27:32;;;;;;;46.80;32.13;;;282.50;2048.00;;;;;;5013376;28;20057;-86
2021/04/22 02:29:58;;;;;;;48.42;32.92;;;282.40;2073.60;;;;;;4996228;28;20030;-81
2021/04/22 02:32:23;;;;;;;48.33;33.42;;;282.40;2073.60;;;;;;5013789;28;20476;-81
2021/04/22 02:34:49;;;;;;;;;;;282.20;2099.20;;;;;;4997024;28;20452;-87
2021/04/22 02:37:15;;;;;;;46.63;31.38;;;282.10;2099.20;;;;;;4995683;28;19909;-80
2021/04/22 02:39:41;;;;;;;;;;;282.00;2124.80;;;;;;4996770;28;20038;-79
2021/04/22 02:42:06;;;;;;;55.85;35.88;;;281.70;2124.80;;;;;;4996205;28;19952;-80
2021/04/22 02:44:32;;;;;;;;;;;281.60;2150.40;;;;;;4996681;28;20022;-79
2021/04/22 02:46:58;;;;;;;56.45;33.05;;;256.90;2124.80;;;;;;5013149;28;19906;-82
2021/04/22 02:49:24;;;;;;;55.28;35.05;;;256.50;2150.40;;;;;;4995903;28;20025;-87
2021/04/22 02:51:50;;;;;;;53.55;35.25;;;256.10;2201.60;;;;;;4996143;28;20036;-87
2021/04/22 02:54:15;;;;;;;;;;;231.10;2252.80;;;;;;4995417;28;20476;-89
2021/04/22 02:56:41;;;;;;;57.72;36.28;;;231.00;2252.80;;;;;;4996280;28;19912;-88
2021/04/22 02:59:07;;;;;;;;;;;231.10;2252.80;;;;;;4996498;28;20029;-79
2021/04/22 03:01:32;;;;;;;49.70;33.63;;;231.30;2252.80;;;;;;4995827;28;19913;-86
2021/04/22 03:03:58;;;;;;;;;;;231.30;2252.80;;;;;;4996008;28;20573;-84
2021/04/22 03:06:24;;;;;;;59.88;34.92;;;231.20;2252.80;;;;;;4995505;28;20367;-79
2021/04/22 03:08:49;;;;;;;;;;;230.70;2252.80;;;;;;4996221;28;20371;-89
2021/04/22 03:11:15;;;;;;;54.38;31.50;;;205.70;2252.80;;;;;;5013207;28;19905;-91
2021/04/22 03:13:41;;;;;;;;;;;205.70;2252.80;;;;;;4995866;28;20034;-91
2021/04/22 03:16:07;;;;;;;52.90;33.22;;;205.60;2252.80;;;;;;5012866;28;20351;-82
2021/04/22 03:18:32;;;;;;;;;;;205.40;2252.80;;;;;;4995949;28;20026;-91
2021/04/22 03:20:58;;;;;;;62.33;34.78;;;205.60;2252.80;;;;;;5013261;28;19985;-90
2021/04/22 03:23:24;;;;;;;;;;;205.40;2252.80;;;;;;4996055;28;20030;-91
2021/04/22 03:25:49;;;;;;;50.65;31.60;;;205.40;2252.80;;;;;;4995443;28;19916;-81
2021/04/22 03:28:15;;;;;;;;;;;205.50;2252.80;;;;;;4995963;28;20032;-82
2021/04/22 03:30:42;;;;;;;49.58;31.50;;;205.50;2252.80;;;;;;5012531;28;19912;-81
2021/04/22 03:33:08;;;;;;;48.50;31.67;;;205.50;2252.80;;;;;;4994933;28;20554;-81
2021/04/22 03:35:34;;;;;;;;;;;205.60;2252.80;;;;;;4995499;28;20114;-87
2021/04/22 03:37:59;;;;;;;53.88;32.95;;;205.50;2252.80;;;;;;4995189;28;19916;-82
2021/04/22 03:40:26;;;;;;;;;;;205.70;2252.80;;;;;;4995641;28;20076;-85
2021/04/22 03:42:53;;;;;;;52.35;31.50;;;230.40;2252.80;;;;;;5012975;28;19905;-84
2021/04/22 03:45:20;;;;;;;68.18;35.75;;;205.50;2252.80;;;;;;4994749;28;20049;-85
2021/04/22 03:47:47;;;;;;;54.47;33.72;;;205.10;2252.80;;;;;;5012539;28;20037;-86
2021/04/22 03:50:15;;;;;;;57.72;33.50;;;205.20;2252.80;;;;;;5012546;28;20022;-85
2021/04/22 03:52:41;;;;;;;55.38;33.33;;;205.20;2252.80;;;;;;5012260;28;20030;-83
2021/04/22 03:55:08;;;;;;;;;;;205.40;2252.80;;;;;;5007565;28;20097;-84
2021/04/22 03:57:34;;;;;;;61.70;33.90;;;205.30;2252.80;;;;;;5012179;28;19996;-80
2021/04/22 04:00:00;;;;;;;52.88;33.50;;;205.30;2252.80;;;;;;5012521;28;20026;-79
2021/04/22 04:02:26;;;;;;;56.25;33.35;;;205.20;2252.80;;;;;;5012222;28;20538;-81
2021/04/22 04:04:51;;;;;;;;;;;205.10;2252.80;;;;;;4995756;28;20026;-83
2021/04/22 04:07:17;;;;;;;52.33;29.92;;;205.10;2252.80;;;;;;4998518;28;19922;-82
2021/04/22 04:09:42;;;;;;;;;;;205.20;2252.80;;;;;;4999355;28;20042;-84
2021/04/22 04:12:09;;;;;;;62.28;34.13;;;205.20;2252.80;;;;;;5016336;28;19949;-80
2021/04/22 04:14:35;;;;;;;61.58;37.95;;;205.30;2252.80;;;;;;4998866;28;20084;-83
2021/04/22 04:17:03;;;;;;;58.03;35.92;;;205.40;2252.80;;;;;;4998952;28;20026;-84
2021/04/22 04:19:28;;;;;;;56.80;35.17;;;205.50;2252.80;;;;;;5016226;28;20029;-80
2021/04/22 04:21:54;;;;;;;;;;;205.40;2252.80;;;;;;5016716;28;20107;-80
2021/04/22 04:24:19;;;;;;;55.58;34.22;;;205.60;2252.80;;;;;;5015864;28;19909;-84
2021/04/22 04:26:45;;;;;;;;;;;205.50;2252.80;;;;;;4998996;28;20033;-85
2021/04/22 04:29:11;;;;;;;55.67;33.33;;;205.50;2252.80;;;;;;5016232;28;20282;-80
2021/04/22 04:31:37;;;;;;;;;;;205.70;2252.80;;;;;;5016551;28;20028;-84
2021/04/22 04:34:02;;;;;;;55.53;34.35;;;205.70;2252.80;;;;;;4998382;28;19909;-81
2021/04/22 04:36:29;;;;;;;;;;;230.50;2252.80;;;;;;4999167;28;20087;-80
2021/04/22 04:38:55;;;;;;;65.97;37.47;;;230.50;2252.80;;;;;;5015691;28;20000;-79
2021/04/22 04:41:20;;;;;;;;;;;230.70;2252.80;;;;;;4995417;28;20117;-79
2021/04/22 04:43:46;;;;;;;56.15;34.10;;;230.80;2252.80;;;;;;4994962;28;20001;-84
2021/04/22 04:46:17;;;;;;;;;;;231.00;2252.80;;;;;;4997437;28;20516;-85
2021/04/22 04:48:44;;;;;;;55.05;37.50;;;231.10;2252.80;;;;;;5015724;28;19912;-85
2021/04/22 04:51:10;;;;;;;61.17;39.92;;;231.30;2252.80;;;;;;4997399;28;20026;-85
2021/04/22 04:53:36;;;;;;;;;;;256.10;2252.80;;;;;;4998705;28;20053;-81
2021/04/22 04:56:02;;;;;;;64.82;37.58;;;256.30;2252.80;;;;;;4997805;28;19912;-79
2021/04/22 04:58:27;;;;;;;;;;;256.30;2252.80;;;;;;4998437;28;20034;-81
2021/04/22 05:00:53;;;;;;;55.95;36.03;;;256.30;2252.80;;;;;;4997967;28;19913;-85
2021/04/22 05:03:18;;;;;;;;;;;256.30;2252.80;;;;;;4998456;28;20033;-84
2021/04/22 05:05:44;;;;;;;62.70;35.47;;;256.60;2252.80;;;;;;4997251;28;19916;-85
2021/04/22 05:08:10;;;;;;;;;;;256.80;2252.80;;;;;;4998323;28;20034;-81
2021/04/22 05:10:36;;;;;;;53.35;33.25;;;256.90;2227.20;;;;;;4997781;28;19909;-85
2021/04/22 05:13:01;;;;;;;;;;;281.70;2252.80;;;;;;4998288;28;20033;-81
2021/04/22 05:15:27;;;;;;;52.28;33.83;;;281.80;2227.20;;;;;;5015345;28;19917;-80
2021/04/22 05:17:53;;;;;;;50.47;34.15;;;281.80;2227.20;;;;;;5013845;28;20026;-85
2021/04/22 05:20:19;;;;;;;77.38;39.13;;;281.70;2278.40;;;;;;4997523;28;20037;-79
2021/04/22 05:22:44;;;;;;;;;;;281.90;2252.80;;;;;;5015327;28;20076;-78
2021/04/22 05:25:10;;;;;;;;;;;282.00;2252.80;;;;;;4997922;28;20442;-79
2021/04/22 05:27:36;;;;;;;;;;;282.00;2252.80;;;;;;4997726;28;19912;-80
2021/04/22 05:30:03;;;;;;;;;;;282.10;2252.80;;;;;;5015167;28;19947;-76
2021/04/22 05:32:28;;;;;;;;;;;282.20;2252.80;;;;;;5014319;28;19935;-76
2021/04/22 05:34:54;;;;;;;;;;;282.10;2252.80;;;;;;5014433;28;19905;-75
2021/04/22 05:37:19;;;;;;;;;;;282.20;2252.80;;;;;;5015112;28;20282;-78
2021/04/22 05:39:45;;;;;;;;;;;282.20;2252.80;;;;;;5014341;28;19957;-76
2021/04/22 05:42:11;;;;;;;;;;;282.30;2278.40;;;;;;4997032;28;20252;-80
2021/04/22 05:44:36;;;;;;;;;;;282.50;2227.20;;;;;;4997006;28;19906;-78
2021/04/22 05:47:02;;;;;;;;;;;282.40;2278.40;;;;;;5014306;28;19905;-77
2021/04/22 05:49:27;;;;;;;;;;;282.50;2252.80;;;;;;5014401;28;19963;-77
2021/04/22 05:51:53;;;;;;;;;;;282.50;2278.40;;;;;;4996815;28;19996;-78
2021/04/22 05:54:19;;;;;;;;;;;307.30;2252.80;;;;;;4996375;28;19906;-77
2021/04/22 05:56:45;;;;;;;;;;;307.50;2252.80;;;;;;5014151;28;19991;-78
2021/04/22 05:59:11;;;;;;;;;;;307.60;2176.00;;;;;;5013957;28;20267;-77
2021/04/22 06:01:37;;;;;;;;;;;307.80;2124.80;;;;;;5014161;28;20044;-77
2021/04/22 06:04:02;;;;;;;;;;;308.00;2073.60;;;;;;5013890;28;20318;-78
2021/04/22 06:06:28;;;;;;;;;;;308.10;2099.20;;;;;;4995963;28;19924;-78
2021/04/22 06:08:53;;;;;;;;;;;332.90;2124.80;;;;;;5014103;28;19932;-78
2021/04/22 06:11:19;;;;;;;;;;;333.00;2048.00;;;;;;5013382;28;19905;-78
2021/04/22 06:13:45;;;;;;;;;;;333.10;2022.40;;;;;;4996226;28;19906;-79
2021/04/22 06:16:10;;;;;;;;;;;333.20;2022.40;;;;;;5013682;28;19909;-79
2021/04/22 06:18:36;;;;;;;;;;;333.30;1996.80;;;;;;4996170;28;19905;-78
2021/04/22 06:21:02;;;;;;;;;;;333.30;2022.40;;;;;;4996052;28;20363;-77
2021/04/22 06:23:27;;;;;;;;;;;333.40;2022.40;;;;;;4996348;28;19955;-78
2021/04/22 06:25:54;;;;;;;;;;;333.50;1945.60;;;;;;4995892;28;19905;-78
2021/04/22 06:28:20;;;;;;;;;;;333.70;1945.60;;;;;;5013576;28;19912;-80
2021/04/22 06:30:45;;;;;;;;;;;333.70;1920.00;;;;;;5013561;28;20291;-78
2021/04/22 06:33:11;;;;;;;;;;;358.50;1894.40;;;;;;5013555;28;19917;-78
2021/04/22 06:35:37;;;;;;;;;;;358.60;1868.80;;;;;;4995875;28;20385;-82
2021/04/22 06:38:02;;;;;;;;;;;358.80;1792.00;;;;;;4995549;28;19988;-84
2021/04/22 06:40:28;;;;;;;;;;;358.80;1766.40;;;;;;4995907;28;20294;-78
2021/04/22 06:42:54;;;;;;;;;;;359.00;1792.00;;;;;;4995570;28;19909;-79
2021/04/22 06:45:19;;;;;;;;;;;359.00;1766.40;;;;;;5013412;28;19905;-78
2021/04/22 06:47:47;;;;;;;;;;;359.20;1792.00;;;;;;4995515;28;19968;-78
2021/04/22 06:50:14;;;;;;;;;;;359.30;1766.40;;;;;;4995623;28;19952;-78
2021/04/22 06:52:40;;;;;;;;;;;384.00;1715.20;;;;;;5012748;28;19905;-77
2021/04/22 06:55:07;;;;;;;;;;;384.20;1715.20;;;;;;4995607;28;19988;-78
2021/04/22 06:57:33;;;;;;;;;;;384.30;1689.60;;;;;;5012998;28;19952;-78
2021/04/22 06:59:58;;;;;;;;;;;384.50;1689.60;;;;;;5012708;28;19906;-78
2021/04/22 07:02:24;;;;;;;;;;;384.60;1638.40;;;;;;5013079;28;20310;-81
2021/04/22 07:04:50;;;;;;;;;;;384.70;1689.60;;;;;;4995266;28;19906;-77
2021/04/22 07:07:15;;;;;;;;;;;384.90;1664.00;;;;;;4995316;28;19921;-80
2021/04/22 07:09:41;;;;;;;;;;;384.90;1587.20;;;;;;5013074;28;20465;-78
2021/04/22 07:12:07;;;;;;;;;;;384.90;1587.20;;;;;;4995224;28;19912;-77
2021/04/22 07:14:32;;;;;;;;;;;409.70;1612.80;;;;;;5012440;28;19913;-77
2021/04/22 07:17:00;;;;;;;;;;;409.80;1561.60;;;;;;5013200;28;20000;-76
2021/04/22 07:19:26;;;;;;;;;;;409.80;1536.00;;;;;;4995079;28;19905;-76
2021/04/22 07:21:52;;;;;;;;;;;409.80;1484.80;;;;;;5012898;28;19963;-76
2021/04/22 07:24:17;;;;;;;;;;;409.90;1510.40;;;;;;5012560;28;20367;-78
2021/04/22 07:26:43;;;;;;;;;;;410.00;1459.20;;;;;;5012681;28;19909;-83
2021/04/22 07:29:09;;;;;;;;;;;410.20;1484.80;;;;;;5012365;28;20274;-79
2021/04/22 07:31:34;;;;;;;;;;;410.30;1510.40;;;;;;5012839;28;19905;-82
2021/04/22 07:34:00;;;;;;;;;;;410.50;1433.60;;;;;;4995440;28;19912;-78
2021/04/22 07:36:25;;;;;;;;;;;435.20;1459.20;;;;;;4995178;28;19916;-82
2021/04/22 07:38:51;;;;;;;;;;;435.20;1382.40;;;;;;5013023;28;20105;-81
2021/04/22 07:41:17;;;;;;;;;;;435.30;1382.40;;;;;;4994104;28;20302;-80
2021/04/22 07:43:42;;;;;;;;;;;435.50;1408.00;;;;;;4994943;28;19905;-83
2021/04/22 07:46:08;;;;;;;;;;;435.40;1433.60;;;;;;5012096;28;19915;-77
2021/04/22 07:48:34;;;;;;;;;;;435.40;1382.40;;;;;;4994684;28;19948;-79
2021/04/22 07:51:00;;;;;;;;;;;435.40;1356.80;;;;;;4994220;28;19916;-78
2021/04/22 07:53:26;;;;;;;;;;;435.40;1356.80;;;;;;4994724;28;19905;-77
2021/04/22 07:55:51;;;;;;;;;;;435.50;1356.80;;;;;;5012596;28;19906;-78
2021/04/22 07:58:17;;;;;;;;;;;435.50;1356.80;;;;;;4994309;28;19960;-78
2021/04/22 08:00:44;;;;;;;;;;;435.60;1356.80;;;;;;5012282;28;19914;-79
2021/04/22 08:03:12;;;;;;;;;;;435.70;1356.80;;;;;;5012263;28;19905;-78
2021/04/22 08:05:38;;;;;;;;;;;435.80;1331.20;;;;;;4995034;28;19913;-82
2021/04/22 08:08:08;;;;;;;;;;;435.70;1331.20;;;;;;5012756;28;19931;-80
2021/04/22 08:10:35;;;;;;;;;;;435.70;1356.80;;;;;;5012779;28;19972;-82
2021/04/22 08:13:03;;;;;;;;;;;435.70;1408.00;;;;;;4995250;28;19905;-82
2021/04/22 08:15:31;;;;;;;;;;;435.70;1382.40;;;;;;4995344;28;19909;-80
2021/04/22 08:17:56;;;;;;;;;;;435.80;1331.20;;;;;;4995711;28;20003;-77
2021/04/22 08:20:27;;;;;;;;;;;435.80;1305.60;;;;;;4995213;28;19945;-82
2021/04/22 08:22:53;;;;;;;;;;;435.90;1280.00;;;;;;5012813;28;20378;-82
2021/04/22 08:25:23;;;;;;;;;;;436.00;1280.00;;;;;;4994693;28;19940;-80
2021/04/22 08:27:50;;;;;;;;;;;435.90;1280.00;;;;;;5012388;28;19912;-81
2021/04/22 08:30:23;;;;;;;;;;;436.00;1331.20;;;;;;4994286;28;19964;-77
2021/04/22 08:32:49;;;;;;;;;;;436.10;1305.60;;;;;;4994687;28;19913;-80
2021/04/22 08:35:14;;;;;;;;;;;436.10;1280.00;;;;;;5012586;28;20001;-84
2021/04/22 08:37:40;;;;;;;;;;;436.10;1280.00;;;;;;5011949;28;19996;-75
2021/04/22 08:40:07;;;;;;;;;;;436.10;1254.40;;;;;;5012256;28;19905;-78
2021/04/22 08:42:33;;;;;;;;;;;460.80;1280.00;;;;;;4994557;28;19914;-82
2021/04/22 08:45:03;;;;;;;;;;;460.80;1356.80;;;;;;5012507;28;19973;-82
2021/04/22 08:47:29;;;;;;;;;;;460.80;1331.20;;;;;;5012456;28;19906;-84
2021/04/22 08:49:55;;;;;;;;;;;460.80;1305.60;;;;;;5012207;28;19905;-81
2021/04/22 08:52:21;;;;;;;;;;;460.80;1305.60;;;;;;5013304;28;19909;-86
2021/04/22 08:54:47;;;;;;;;;;;461.00;1305.60;;;;;;5017524;28;20401;-87
2021/04/22 08:57:13;;;;;;;;;;;461.10;1254.40;;;;;;5016243;28;19905;-87
2021/04/22 08:59:39;;;;;;;;;;;461.10;1280.00;;;;;;5016152;28;19910;-87
2021/04/22 09:02:05;;;;;;;;;;;461.10;1305.60;;;;;;5016352;28;19929;-84
2021/04/22 09:04:32;;;;;;;;;;;461.20;1382.40;;;;;;5016084;28;19913;-84
2021/04/22 09:06:58;;;;;;;;;;;461.40;1280.00;;;;;;4998405;28;19921;-78
2021/04/22 09:09:24;;;;;;;;;;;461.40;1305.60;;;;;;5015083;28;20398;-83
2021/04/22 09:11:49;;;;;;;;;;;461.50;1254.40;;;;;;4997784;28;20446;-77
2021/04/22 09:14:16;;;;;;;;;;;461.70;1228.80;;;;;;5014869;28;20124;-80
2021/04/22 09:16:42;;;;;;;;;;;461.70;1254.40;;;;;;5015142;28;19912;-77
2021/04/22 09:19:11;;;;;;;;;;;461.60;1254.40;;;;;;4997277;28;19909;-80
2021/04/22 09:21:40;;;;;;;;;;;461.40;1203.20;;;;;;5014681;28;19933;-79
2021/04/22 09:24:14;;;;;;;;;;;461.30;1203.20;;;;;;5014918;28;19907;-79
2021/04/22 09:26:50;;;;;;;;;;;461.40;1254.40;;;;;;5015129;28;19931;-77
2021/04/22 09:29:17;;;;;;;;;;;461.70;1254.40;;;;;;5014928;28;19992;-83
2021/04/22 09:31:43;;;;;;;;;;;486.40;1203.20;;;;;;5014723;28;19913;-77
2021/04/22 09:34:14;;;;;;;;;;;486.60;1228.80;;;;;;4997226;28;20351;-77
2021/04/22 09:36:40;;;;;;;;;;;486.60;1177.60;;;;;;5014894;28;20347;-77
2021/04/22 09:39:05;;;;;;;;;;;486.60;1177.60;;;;;;5014533;28;19909;-78
2021/04/22 09:41:34;;;;;;;;;;;486.50;1203.20;;;;;;4997010;28;19913;-77
2021/04/22 09:44:07;;;;;;;;;;;461.70;1228.80;;;;;;4996841;28;19912;-78
2021/04/22 09:46:33;;;;;;;;;;;486.50;1177.60;;;;;;5014776;28;19905;-78
2021/04/22 09:49:06;;;;;;;;;;;486.90;1152.00;;;;;;4996591;28;20371;-77
2021/04/22 09:51:33;;;;;;;;;;;487.20;1100.80;;;;;;5014686;28;19906;-85
2021/04/22 09:54:03;;;;;;;;;;;487.10;1228.80;;;;;;4996436;28;19909;-77
2021/04/22 09:56:38;;;;;;;;;;;486.80;1177.60;;;;;;4996675;28;19952;-78
2021/04/22 09:59:05;;;;;;;;;;;487.30;1126.40;;;;;;4996912;28;19905;-77
2021/04/22 10:01:31;;;;;;;;;;;512.40;1100.80;;;;;;5014130;28;19913;-78
2021/04/22 10:03:57;;;;;;;;;;;512.50;1075.20;;;;;;4996253;28;19905;-78
2021/04/22 10:06:23;;;;;;;;;;;512.20;1049.60;;;;;;5013804;28;20331;-78
2021/04/22 10:08:48;;;;;;;;;;;487.30;1024.00;;;;;;5014096;28;20004;-78
2021/04/22 10:11:14;;;;;;;;;;;487.10;1024.00;;;;;;4996409;28;19948;-78
2021/04/22 10:13:47;;;;;;;;;;;487.20;1049.60;;;;;;4996289;28;19952;-77
2021/04/22 10:16:12;;;;;;;;;;;487.20;1049.60;;;;;;5013855;28;19963;-84
2021/04/22 10:18:39;;;;;;;;;;;512.00;998.40;;;;;;4996031;28;20337;-78
2021/04/22 10:21:04;;;;;;;;;;;512.20;972.80;;;;;;5013751;28;19917;-77
2021/04/22 10:23:30;;;;;;;;;;;512.20;947.20;;;;;;5013549;28;20343;-78
2021/04/22 10:25:56;;;;;;;;;;;512.40;972.80;;;;;;4996275;28;19909;-77
2021/04/22 10:28:22;;;;;;;;;;;512.60;947.20;;;;;;5013500;28;19909;-77
2021/04/22 10:30:48;;;;;;;;;;;512.60;921.60;;;;;;4996126;28;20369;-77
2021/04/22 10:33:14;;;;;;;;;;;512.70;998.40;;;;;;4995848;28;20375;-78
2021/04/22 10:35:41;;;;;;;;;;;512.70;972.80;;;;;;5013519;28;19905;-78
2021/04/22 10:38:08;;;;;;;;;;;512.70;998.40;;;;;;5013511;28;19914;-77
2021/04/22 10:40:35;;;;;;;;;;;512.90;972.80;;;;;;5013303;28;19905;-78
2021/04/22 10:43:02;;;;;;;;;;;512.70;1024.00;;;;;;5013914;28;19922;-76
2021/04/22 10:45:29;;;;;;;;;;;537.60;1024.00;;;;;;4995836;28;19913;-77
2021/04/22 10:47:54;;;;;;;;;;;537.70;972.80;;;;;;5013390;28;19905;-77
2021/04/22 10:50:20;;;;;;;;;;;537.80;998.40;;;;;;4995770;28;19912;-77
2021/04/22 10:52:47;;;;;;;;;;;537.80;972.80;;;;;;5013182;28;19952;-76
2021/04/22 10:55:16;;;;;;;;;;;537.80;972.80;;;;;;5012992;28;19957;-77
2021/04/22 10:57:42;;;;;;;;;;;538.30;972.80;;;;;;5013315;28;19928;-77
2021/04/22 11:00:09;;;;;;;;;;;538.40;896.00;;;;;;5012857;28;20370;-77
2021/04/22 11:02:44;;;;;;;;;;;538.50;896.00;;;;;;5013274;28;19917;-78
2021/04/22 11:05:18;;;;;;;;;;;563.20;972.80;;;;;;5012177;28;19906;-77
2021/04/22 11:07:52;;;;;;;;;;;538.50;896.00;;;;;;4995062;28;19976;-77
2021/04/22 11:10:18;;;;;;;;;;;538.50;844.80;;;;;;5013135;28;19917;-76
2021/04/22 11:12:44;;;;;;;;;;;563.30;870.40;;;;;;5012673;28;19905;-77
2021/04/22 11:15:16;;;;;;;;;;;563.40;844.80;;;;;;4994403;28;19905;-77
2021/04/22 11:17:41;;;;;;;;;;;563.30;896.00;;;;;;5012978;28;19928;-77
2021/04/22 11:20:12;;;;;;;;;;;538.50;921.60;;;;;;5012424;28;20355;-76
2021/04/22 11:22:38;;;;;;;;;;;563.30;921.60;;;;;;5012624;28;20038;-76
2021/04/22 11:25:05;;;;;;;;;;;563.30;896.00;;;;;;5012762;28;19944;-76
2021/04/22 11:27:31;;;;;;;;;;;563.50;844.80;;;;;;5012675;28;19909;-75
2021/04/22 11:29:58;;;;;;;;;;;563.70;844.80;;;;;;5012709;28;19905;-75
2021/04/22 11:32:24;;;;;;;;;;;563.50;870.40;;;;;;4994898;28;20279;-76
2021/04/22 11:34:51;;;;;;;;;;;563.40;844.80;;;;;;4994787;28;19905;-75
2021/04/22 11:37:31;;;;;;;;;;;538.20;921.60;;;;;;5012807;28;20003;-78
2021/04/22 11:39:57;;;;;;;;;;;538.50;870.40;;;;;;5012496;28;19920;-77
2021/04/22 11:42:23;;;;;;;;;;;563.20;870.40;;;;;;4994830;28;19924;-74
2021/04/22 11:44:51;;;;;;;;;;;538.50;768.00;;;;;;5012944;28;19906;-77
2021/04/22 11:47:27;;;;;;;;;;;563.20;844.80;;;;;;5012259;28;20047;-77
2021/04/22 11:50:08;;;;;;;;;;;538.40;870.40;;;;;;5012256;28;19913;-80
2021/04/22 11:52:41;;;;;;;;;;;563.20;844.80;;;;;;5012206;28;20363;-76
2021/04/22 11:55:18;;;;;;;;;;;563.20;819.20;;;;;;4995040;28;19921;-79
2021/04/22 11:59:58;;;;;;;7.38;3.00;;;563.30;793.60;;;;;;5109445;27;20396;-78
2021/04/22 12:02:24;;;;;;;6.20;2.83;;;563.30;870.40;;;;;;5108858;28;20069;-76
2021/04/22 12:04:50;;;;;;;3.80;2.00;;;563.60;793.60;;;;;;5108931;28;20020;-76
2021/04/22 12:07:22;;;;;;;3.55;2.17;;;563.60;742.40;;;;;;5107911;28;20024;-75
2021/04/22 12:09:52;;;;;;;3.72;2.20;;;563.50;742.40;;;;;;5107383;28;20036;-76
2021/04/22 12:12:22;;;;;;;2.88;1.98;;;563.30;742.40;;;;;;5108881;28;20016;-77
2021/04/22 12:14:54;;;;;;;2.90;1.75;;;563.30;768.00;;;;;;5108353;28;20034;-75
2021/04/22 12:17:23;;;;;;;3.42;1.90;;;563.30;768.00;;;;;;5109687;28;20027;-75
2021/04/22 12:19:54;;;;;;;2.88;1.85;;;563.30;793.60;;;;;;5109321;28;20023;-78
2021/04/22 12:22:39;;;;;;;3.58;1.60;;;563.40;768.00;;;;;;5108416;28;20024;-78
2021/04/22 12:25:09;;;;;;;4.07;1.55;;;563.50;768.00;;;;;;5107744;28;20024;-78
2021/04/22 12:27:38;;;;;;;3.42;1.73;;;563.60;742.40;;;;;;5108543;28;20028;-76
2021/04/22 12:30:22;;;;;;;3.92;2.10;;;564.00;716.80;;;;;;5107743;28;20034;-77
2021/04/22 12:33:05;;;;;;;4.20;2.40;;;564.00;793.60;;;;;;5107087;28;20048;-77
2021/04/22 12:35:33;;;;;;;3.35;1.85;;;564.10;793.60;;;;;;5107351;28;20020;-76
2021/04/22 12:38:20;;;;;;;6.85;1.80;;;588.90;793.60;;;;;;5108827;28;20047;-76
2021/04/22 12:40:58;;;;;;;5.43;2.22;;;589.00;768.00;;;;;;5106543;28;20099;-77
2021/04/22 12:43:26;;;;;;;2.50;1.60;;;564.10;742.40;;;;;;5106059;28;20030;-76
2021/04/22 12:45:53;;;;;;;3.47;1.48;;;564.10;716.80;;;;;;5108637;28;20027;-76
2021/04/22 12:48:19;;;;;;;2.72;1.50;;;564.10;716.80;;;;;;5106672;28;20068;-76
2021/04/22 12:50:47;;;;;;;2.60;1.58;;;588.80;742.40;;;;;;5108955;28;20028;-76
2021/04/22 12:53:19;;;;;;;4.50;1.67;;;564.10;716.80;;;;;;5108173;28;20366;-76
2021/04/22 12:55:52;;;;;;;2.83;1.58;;;564.10;716.80;;;;;;5104501;28;20028;-76
2021/04/22 12:58:22;;;;;;;5.28;2.15;;;564.10;716.80;;;;;;5108013;28;20097;-76
2021/04/22 13:00:53;;;;;;;2.42;1.50;;;588.80;691.20;;;;;;5107927;28;20020;-76
2021/04/22 13:03:23;;;;;;;2.25;1.40;;;588.80;691.20;;;;;;5108192;28;20054;-76
2021/04/22 13:06:07;;;;;;;2.95;1.50;;;588.80;716.80;;;;;;5106770;28;20391;-78